sensor_id;sensor_type;location;lat;lon;timestamp;pressure;altitude;pressure_sealevel;temperature;humidity
20015;BME280;61787;42.022;23.078;2024-01-10T00:00:16;97885.56;;;-3.16;59.02
20015;BME280;61787;42.022;23.078;2024-01-10T00:01:18;97894.88;;;-3.13;59.47
20015;BME280;61787;42.022;23.078;2024-01-10T00:02:20;97892.19;;;-3.13;59.07
20015;BME280;61787;42.022;23.078;2024-01-10T00:03:22;97896.38;;;-3.07;59.02
20015;BME280;61787;42.022;23.078;2024-01-10T00:04:24;97898.59;;;-3.14;59.10
20015;BME280;61787;42.022;23.078;2024-01-10T00:05:25;97893.59;;;-3.16;59.69
20015;BME280;61787;42.022;23.078;2024-01-10T00:06:27;97898.25;;;-3.08;58.93
20015;BME280;61787;42.022;23.078;2024-01-10T00:07:29;97903.44;;;-3.16;59.31
20015;BME280;61787;42.022;23.078;2024-01-10T00:08:31;97902.44;;;-3.20;59.52
20015;BME280;61787;42.022;23.078;2024-01-10T00:09:33;97907.31;;;-3.28;59.75
20015;BME280;61787;42.022;23.078;2024-01-10T00:10:34;97902.59;;;-3.36;59.60
20015;BME280;61787;42.022;23.078;2024-01-10T00:11:36;97902.38;;;-3.39;60.28
20015;BME280;61787;42.022;23.078;2024-01-10T00:12:38;97911.69;;;-3.37;60.03
20015;BME280;61787;42.022;23.078;2024-01-10T00:13:39;97904.16;;;-3.30;60.03
20015;BME280;61787;42.022;23.078;2024-01-10T00:14:41;97911.59;;;-3.27;60.01
20015;BME280;61787;42.022;23.078;2024-01-10T00:15:43;97915.31;;;-3.28;59.92
20015;BME280;61787;42.022;23.078;2024-01-10T00:16:44;97909.06;;;-3.18;59.70
20015;BME280;61787;42.022;23.078;2024-01-10T00:17:46;97910.44;;;-3.20;60.05
20015;BME280;61787;42.022;23.078;2024-01-10T00:18:47;97913.53;;;-3.13;59.95
20015;BME280;61787;42.022;23.078;2024-01-10T00:19:49;97912.47;;;-3.12;59.36
20015;BME280;61787;42.022;23.078;2024-01-10T00:20:51;97916.22;;;-3.13;59.72
20015;BME280;61787;42.022;23.078;2024-01-10T00:21:55;97919.03;;;-3.04;59.22
20015;BME280;61787;42.022;23.078;2024-01-10T00:22:56;97916.88;;;-3.02;59.26
20015;BME280;61787;42.022;23.078;2024-01-10T00:23:59;97923.00;;;-3.02;59.27
20015;BME280;61787;42.022;23.078;2024-01-10T00:25:01;97919.03;;;-3.04;59.32
20015;BME280;61787;42.022;23.078;2024-01-10T00:26:03;97912.09;;;-3.05;59.07
20015;BME280;61787;42.022;23.078;2024-01-10T00:27:05;97923.81;;;-3.01;59.31
20015;BME280;61787;42.022;23.078;2024-01-10T00:28:08;97918.25;;;-3.05;59.04
20015;BME280;61787;42.022;23.078;2024-01-10T00:29:10;97928.69;;;-3.09;59.34
20015;BME280;61787;42.022;23.078;2024-01-10T00:30:11;97926.16;;;-3.00;59.01
20015;BME280;61787;42.022;23.078;2024-01-10T00:31:13;97926.09;;;-2.95;59.23
20015;BME280;61787;42.022;23.078;2024-01-10T00:32:15;97920.91;;;-2.86;59.04
20015;BME280;61787;42.022;23.078;2024-01-10T00:33:17;97931.38;;;-2.90;58.77
20015;BME280;61787;42.022;23.078;2024-01-10T00:34:19;97933.25;;;-2.90;58.54
20015;BME280;61787;42.022;23.078;2024-01-10T00:35:20;97934.38;;;-2.96;58.52
20015;BME280;61787;42.022;23.078;2024-01-10T00:36:22;97929.22;;;-2.88;58.51
20015;BME280;61787;42.022;23.078;2024-01-10T00:37:24;97936.88;;;-2.81;58.34
20015;BME280;61787;42.022;23.078;2024-01-10T00:38:25;97940.81;;;-2.78;58.25
20015;BME280;61787;42.022;23.078;2024-01-10T00:39:27;97933.91;;;-2.79;58.50
20015;BME280;61787;42.022;23.078;2024-01-10T00:40:28;97933.63;;;-2.78;58.12
20015;BME280;61787;42.022;23.078;2024-01-10T00:41:30;97937.22;;;-2.88;58.20
20015;BME280;61787;42.022;23.078;2024-01-10T00:42:32;97935.03;;;-2.85;58.52
20015;BME280;61787;42.022;23.078;2024-01-10T00:43:33;97936.72;;;-2.90;58.25
20015;BME280;61787;42.022;23.078;2024-01-10T00:44:35;97944.78;;;-2.95;58.25
20015;BME280;61787;42.022;23.078;2024-01-10T00:45:37;97941.09;;;-2.99;58.94
20015;BME280;61787;42.022;23.078;2024-01-10T00:46:39;97934.53;;;-3.07;58.71
20015;BME280;61787;42.022;23.078;2024-01-10T00:47:41;97929.47;;;-3.08;59.01
20015;BME280;61787;42.022;23.078;2024-01-10T00:48:43;97934.31;;;-3.10;58.61
20015;BME280;61787;42.022;23.078;2024-01-10T00:49:44;97930.59;;;-3.14;59.13
20015;BME280;61787;42.022;23.078;2024-01-10T00:50:46;97934.59;;;-3.12;58.75
20015;BME280;61787;42.022;23.078;2024-01-10T00:51:48;97937.38;;;-2.98;58.44
20015;BME280;61787;42.022;23.078;2024-01-10T00:52:50;97942.25;;;-3.05;59.04
20015;BME280;61787;42.022;23.078;2024-01-10T00:53:52;97945.78;;;-3.10;58.88
20015;BME280;61787;42.022;23.078;2024-01-10T00:54:53;97935.38;;;-3.11;58.98
20015;BME280;61787;42.022;23.078;2024-01-10T00:55:55;97937.44;;;-3.03;58.75
20015;BME280;61787;42.022;23.078;2024-01-10T00:56:57;97941.59;;;-2.97;58.49
20015;BME280;61787;42.022;23.078;2024-01-10T00:57:58;97938.00;;;-3.06;59.13
20015;BME280;61787;42.022;23.078;2024-01-10T00:59:00;97944.31;;;-3.21;58.98
20015;BME280;61787;42.022;23.078;2024-01-10T01:00:02;97939.25;;;-3.22;59.03
20015;BME280;61787;42.022;23.078;2024-01-10T01:01:05;97943.94;;;-3.14;59.32
20015;BME280;61787;42.022;23.078;2024-01-10T01:02:06;97943.09;;;-3.10;59.35
20015;BME280;61787;42.022;23.078;2024-01-10T01:03:08;97947.06;;;-3.07;58.68
20015;BME280;61787;42.022;23.078;2024-01-10T01:04:10;97947.22;;;-3.17;58.62
20015;BME280;61787;42.022;23.078;2024-01-10T01:05:11;97948.78;;;-3.16;59.00
20015;BME280;61787;42.022;23.078;2024-01-10T01:06:13;97939.47;;;-3.19;58.93
20015;BME280;61787;42.022;23.078;2024-01-10T01:07:15;97946.63;;;-3.14;59.19
20015;BME280;61787;42.022;23.078;2024-01-10T01:08:16;97947.38;;;-3.09;58.73
20015;BME280;61787;42.022;23.078;2024-01-10T01:09:18;97950.59;;;-3.12;58.61
20015;BME280;61787;42.022;23.078;2024-01-10T01:10:20;97942.25;;;-3.05;58.69
20015;BME280;61787;42.022;23.078;2024-01-10T01:11:22;97946.94;;;-2.97;58.36
20015;BME280;61787;42.022;23.078;2024-01-10T01:12:23;97938.44;;;-2.99;58.56
20015;BME280;61787;42.022;23.078;2024-01-10T01:13:25;97941.94;;;-3.03;58.67
20015;BME280;61787;42.022;23.078;2024-01-10T01:14:26;97944.75;;;-3.14;59.12
20015;BME280;61787;42.022;23.078;2024-01-10T01:15:28;97951.81;;;-3.23;59.76
20015;BME280;61787;42.022;23.078;2024-01-10T01:16:30;97951.72;;;-3.18;59.47
20015;BME280;61787;42.022;23.078;2024-01-10T01:17:31;97949.00;;;-3.13;59.51
20015;BME280;61787;42.022;23.078;2024-01-10T01:18:33;97948.66;;;-3.06;59.17
20015;BME280;61787;42.022;23.078;2024-01-10T01:19:34;97952.19;;;-3.11;58.81
20015;BME280;61787;42.022;23.078;2024-01-10T01:20:36;97942.31;;;-3.10;59.09
20015;BME280;61787;42.022;23.078;2024-01-10T01:21:38;97948.00;;;-3.17;59.08
20015;BME280;61787;42.022;23.078;2024-01-10T01:22:40;97947.16;;;-3.12;59.36
20015;BME280;61787;42.022;23.078;2024-01-10T01:23:41;97943.94;;;-3.14;59.34
20015;BME280;61787;42.022;23.078;2024-01-10T01:24:43;97941.41;;;-3.24;59.62
20015;BME280;61787;42.022;23.078;2024-01-10T01:25:45;97936.97;;;-3.10;59.28
20015;BME280;61787;42.022;23.078;2024-01-10T01:26:47;97938.56;;;-3.09;59.10
20015;BME280;61787;42.022;23.078;2024-01-10T01:27:48;97940.00;;;-3.17;59.48
20015;BME280;61787;42.022;23.078;2024-01-10T01:28:50;97933.59;;;-3.16;59.75
20015;BME280;61787;42.022;23.078;2024-01-10T01:29:52;97926.88;;;-3.13;59.66
20015;BME280;61787;42.022;23.078;2024-01-10T01:30:53;97932.56;;;-3.20;59.93
20015;BME280;61787;42.022;23.078;2024-01-10T01:31:55;97930.16;;;-3.21;59.84
20015;BME280;61787;42.022;23.078;2024-01-10T01:32:57;97929.03;;;-3.15;59.25
20015;BME280;61787;42.022;23.078;2024-01-10T01:33:59;97927.88;;;-3.09;59.67
20015;BME280;61787;42.022;23.078;2024-01-10T01:35:01;97927.44;;;-3.16;59.50
20015;BME280;61787;42.022;23.078;2024-01-10T01:36:03;97929.75;;;-3.10;59.46
20015;BME280;61787;42.022;23.078;2024-01-10T01:37:05;97932.28;;;-3.18;59.58
20015;BME280;61787;42.022;23.078;2024-01-10T01:38:06;97936.03;;;-3.19;59.90
20015;BME280;61787;42.022;23.078;2024-01-10T01:39:09;97934.38;;;-3.15;59.25
20015;BME280;61787;42.022;23.078;2024-01-10T01:40:11;97931.75;;;-3.20;59.52
20015;BME280;61787;42.022;23.078;2024-01-10T01:41:12;97936.53;;;-3.17;59.68
20015;BME280;61787;42.022;23.078;2024-01-10T01:42:16;97938.84;;;-3.11;59.33
20015;BME280;61787;42.022;23.078;2024-01-10T01:43:23;97931.44;;;-3.14;59.12
20015;BME280;61787;42.022;23.078;2024-01-10T01:44:26;97936.97;;;-3.10;59.59
20015;BME280;61787;42.022;23.078;2024-01-10T01:45:27;97936.97;;;-3.10;59.29
20015;BME280;61787;42.022;23.078;2024-01-10T01:46:29;97932.22;;;-3.13;59.79
20015;BME280;61787;42.022;23.078;2024-01-10T01:47:31;97931.75;;;-3.20;59.42
20015;BME280;61787;42.022;23.078;2024-01-10T01:48:32;97934.22;;;-3.24;59.87
20015;BME280;61787;42.022;23.078;2024-01-10T01:49:35;97933.22;;;-3.09;59.84
20015;BME280;61787;42.022;23.078;2024-01-10T01:50:37;97932.44;;;-3.10;59.63
20015;BME280;61787;42.022;23.078;2024-01-10T01:51:39;97930.56;;;-3.09;59.84
20015;BME280;61787;42.022;23.078;2024-01-10T01:52:43;97922.31;;;-3.13;59.49
20015;BME280;61787;42.022;23.078;2024-01-10T01:53:44;97927.44;;;-3.16;59.86
20015;BME280;61787;42.022;23.078;2024-01-10T01:54:47;97925.38;;;-3.19;59.82
20015;BME280;61787;42.022;23.078;2024-01-10T01:55:50;97923.47;;;-3.19;59.90
20015;BME280;61787;42.022;23.078;2024-01-10T01:56:52;97921.41;;;-3.03;59.39
20015;BME280;61787;42.022;23.078;2024-01-10T01:57:54;97926.53;;;-3.07;59.46
20015;BME280;61787;42.022;23.078;2024-01-10T01:58:56;97920.69;;;-3.09;59.76
20015;BME280;61787;42.022;23.078;2024-01-10T01:59:57;97923.38;;;-3.09;59.68
20015;BME280;61787;42.022;23.078;2024-01-10T02:01:01;97919.03;;;-3.04;59.51
20015;BME280;61787;42.022;23.078;2024-01-10T02:02:04;97926.09;;;-2.95;59.35
20015;BME280;61787;42.022;23.078;2024-01-10T02:03:08;97911.53;;;-3.02;59.39
20015;BME280;61787;42.022;23.078;2024-01-10T02:04:11;97920.38;;;-3.07;59.96
20015;BME280;61787;42.022;23.078;2024-01-10T02:05:12;97919.94;;;-3.14;60.37
20015;BME280;61787;42.022;23.078;2024-01-10T02:06:17;97923.69;;;-3.15;60.04
20015;BME280;61787;42.022;23.078;2024-01-10T02:07:18;97920.81;;;-3.19;59.79
20015;BME280;61787;42.022;23.078;2024-01-10T02:08:20;97918.72;;;-3.22;60.14
20015;BME280;61787;42.022;23.078;2024-01-10T02:09:21;97915.66;;;-3.10;59.69
20015;BME280;61787;42.022;23.078;2024-01-10T02:10:23;97919.09;;;-3.10;59.97
20015;BME280;61787;42.022;23.078;2024-01-10T02:11:26;97916.09;;;-3.03;59.85
20015;BME280;61787;42.022;23.078;2024-01-10T02:12:27;97923.59;;;-3.05;60.02
20015;BME280;61787;42.022;23.078;2024-01-10T02:13:30;97920.25;;;-2.97;59.63
20015;BME280;61787;42.022;23.078;2024-01-10T02:14:34;97911.41;;;-2.92;59.40
20015;BME280;61787;42.022;23.078;2024-01-10T02:15:36;97908.81;;;-2.97;59.86
20015;BME280;61787;42.022;23.078;2024-01-10T02:16:38;97910.16;;;-3.00;59.52
20015;BME280;61787;42.022;23.078;2024-01-10T02:17:40;97909.03;;;-2.94;59.76
20015;BME280;61787;42.022;23.078;2024-01-10T02:18:41;97906.41;;;-2.99;59.68
20015;BME280;61787;42.022;23.078;2024-01-10T02:19:43;97907.81;;;-3.01;59.89
20015;BME280;61787;42.022;23.078;2024-01-10T02:20:45;97906.41;;;-2.99;59.92
20015;BME280;61787;42.022;23.078;2024-01-10T02:21:46;97904.31;;;-3.02;60.03
20015;BME280;61787;42.022;23.078;2024-01-10T02:22:48;97900.06;;;-3.03;59.69
20015;BME280;61787;42.022;23.078;2024-01-10T02:23:52;97903.81;;;-3.04;59.90
20015;BME280;61787;42.022;23.078;2024-01-10T02:24:53;97901.88;;;-2.98;59.95
20015;BME280;61787;42.022;23.078;2024-01-10T02:25:56;97898.13;;;-2.97;59.86
20015;BME280;61787;42.022;23.078;2024-01-10T02:26:57;97904.59;;;-3.03;59.61
20015;BME280;61787;42.022;23.078;2024-01-10T02:27:59;97910.16;;;-3.00;59.53
20015;BME280;61787;42.022;23.078;2024-01-10T02:29:01;97914.41;;;-2.99;59.94
20015;BME280;61787;42.022;23.078;2024-01-10T02:30:03;97910.59;;;-2.93;60.09
20015;BME280;61787;42.022;23.078;2024-01-10T02:31:05;97912.06;;;-2.81;59.05
20015;BME280;61787;42.022;23.078;2024-01-10T02:32:08;97912.00;;;-2.76;59.02
20015;BME280;61787;42.022;23.078;2024-01-10T02:33:10;97904.06;;;-2.81;58.91
20015;BME280;61787;42.022;23.078;2024-01-10T02:34:12;97912.84;;;-2.81;59.19
20015;BME280;61787;42.022;23.078;2024-01-10T02:35:14;97893.44;;;-2.86;59.28
20015;BME280;61787;42.022;23.078;2024-01-10T02:36:16;97910.38;;;-2.96;59.35
20015;BME280;61787;42.022;23.078;2024-01-10T02:37:17;97912.75;;;-2.95;59.48
20015;BME280;61787;42.022;23.078;2024-01-10T02:38:19;97909.66;;;-3.02;59.39
20015;BME280;61787;42.022;23.078;2024-01-10T02:39:22;97912.31;;;-3.02;59.11
20015;BME280;61787;42.022;23.078;2024-01-10T02:40:24;97910.03;;;-2.90;59.11
20015;BME280;61787;42.022;23.078;2024-01-10T02:41:26;97910.25;;;-2.86;59.00
20015;BME280;61787;42.022;23.078;2024-01-10T02:42:28;97904.97;;;-2.91;59.39
20015;BME280;61787;42.022;23.078;2024-01-10T02:43:31;97916.25;;;-2.94;59.51
20015;BME280;61787;42.022;23.078;2024-01-10T02:44:33;97907.63;;;-2.91;58.99
20015;BME280;61787;42.022;23.078;2024-01-10T02:45:34;97913.13;;;-3.01;59.05
20015;BME280;61787;42.022;23.078;2024-01-10T02:46:37;97917.72;;;-3.07;59.45
20015;BME280;61787;42.022;23.078;2024-01-10T02:47:38;97921.41;;;-3.03;59.78
20015;BME280;61787;42.022;23.078;2024-01-10T02:48:40;97924.03;;;-2.98;59.54
20015;BME280;61787;42.022;23.078;2024-01-10T02:49:42;97918.59;;;-2.93;59.11
20015;BME280;61787;42.022;23.078;2024-01-10T02:50:44;97912.75;;;-2.95;59.37
20015;BME280;61787;42.022;23.078;2024-01-10T02:51:45;97917.59;;;-2.97;59.31
20015;BME280;61787;42.022;23.078;2024-01-10T02:52:47;97913.19;;;-2.88;59.45
20015;BME280;61787;42.022;23.078;2024-01-10T02:53:48;97917.03;;;-2.94;59.60
20015;BME280;61787;42.022;23.078;2024-01-10T02:54:50;97911.19;;;-2.96;59.25
20015;BME280;61787;42.022;23.078;2024-01-10T02:55:52;97909.19;;;-2.85;59.23
20015;BME280;61787;42.022;23.078;2024-01-10T02:56:53;97913.63;;;-2.80;58.88
20015;BME280;61787;42.022;23.078;2024-01-10T02:57:55;97918.25;;;-2.86;59.28
20015;BME280;61787;42.022;23.078;2024-01-10T02:58:56;97923.22;;;-2.98;59.43
20015;BME280;61787;42.022;23.078;2024-01-10T02:59:58;97913.78;;;-2.91;59.24
20015;BME280;61787;42.022;23.078;2024-01-10T03:00:59;97917.09;;;-2.99;59.03
20015;BME280;61787;42.022;23.078;2024-01-10T03:02:03;97920.25;;;-2.97;59.23
20015;BME280;61787;42.022;23.078;2024-01-10T03:03:05;97921.88;;;-2.96;59.15
20015;BME280;61787;42.022;23.078;2024-01-10T03:04:06;97919.13;;;-2.91;58.86
20015;BME280;61787;42.022;23.078;2024-01-10T03:05:08;97913.56;;;-2.94;58.85
20015;BME280;61787;42.022;23.078;2024-01-10T03:06:10;97920.81;;;-3.00;59.18
20015;BME280;61787;42.022;23.078;2024-01-10T03:07:11;97918.16;;;-3.00;58.93
20015;BME280;61787;42.022;23.078;2024-01-10T03:08:13;97921.03;;;-2.96;58.99
20015;BME280;61787;42.022;23.078;2024-01-10T03:09:15;97919.75;;;-2.99;59.05
20015;BME280;61787;42.022;23.078;2024-01-10T03:10:17;97919.25;;;-3.01;59.69
20015;BME280;61787;42.022;23.078;2024-01-10T03:11:19;97920.59;;;-3.03;59.13
20015;BME280;61787;42.022;23.078;2024-01-10T03:12:20;97914.75;;;-3.05;59.20
20015;BME280;61787;42.022;23.078;2024-01-10T03:13:22;97911.66;;;-3.13;59.36
20015;BME280;61787;42.022;23.078;2024-01-10T03:14:23;97922.09;;;-3.16;59.76
20015;BME280;61787;42.022;23.078;2024-01-10T03:15:25;97919.94;;;-3.14;59.61
20015;BME280;61787;42.022;23.078;2024-01-10T03:16:27;97918.03;;;-3.09;59.66
20015;BME280;61787;42.022;23.078;2024-01-10T03:17:29;97917.81;;;-3.12;59.71
20015;BME280;61787;42.022;23.078;2024-01-10T03:18:30;97919.88;;;-3.09;59.67
20015;BME280;61787;42.022;23.078;2024-01-10T03:19:32;97917.50;;;-3.11;59.71
20015;BME280;61787;42.022;23.078;2024-01-10T03:20:34;97923.16;;;-3.12;59.86
20015;BME280;61787;42.022;23.078;2024-01-10T03:21:35;97922.09;;;-3.16;59.80
20015;BME280;61787;42.022;23.078;2024-01-10T03:22:37;97922.91;;;-3.16;59.94
20015;BME280;61787;42.022;23.078;2024-01-10T03:23:39;97925.00;;;-3.13;60.00
20015;BME280;61787;42.022;23.078;2024-01-10T03:24:40;97926.59;;;-3.12;59.94
20015;BME280;61787;42.022;23.078;2024-01-10T03:25:42;97914.81;;;-3.11;59.73
20015;BME280;61787;42.022;23.078;2024-01-10T03:26:44;97922.53;;;-3.09;59.33
20015;BME280;61787;42.022;23.078;2024-01-10T03:27:45;97917.94;;;-3.22;59.94
20015;BME280;61787;42.022;23.078;2024-01-10T03:28:47;97919.63;;;-3.32;60.51
20015;BME280;61787;42.022;23.078;2024-01-10T03:29:49;97918.69;;;-3.41;61.02
20015;BME280;61787;42.022;23.078;2024-01-10T03:30:51;97914.75;;;-3.49;60.86
20015;BME280;61787;42.022;23.078;2024-01-10T03:31:53;97916.81;;;-3.40;60.96
20015;BME280;61787;42.022;23.078;2024-01-10T03:32:55;97913.91;;;-3.44;61.11
20015;BME280;61787;42.022;23.078;2024-01-10T03:33:57;97924.53;;;-3.39;60.98
20015;BME280;61787;42.022;23.078;2024-01-10T03:34:59;97921.41;;;-3.46;60.94
20015;BME280;61787;42.022;23.078;2024-01-10T03:36:01;97918.50;;;-3.50;61.30
20015;BME280;61787;42.022;23.078;2024-01-10T03:37:04;97926.72;;;-3.46;61.16
20015;BME280;61787;42.022;23.078;2024-01-10T03:38:05;97920.38;;;-3.50;61.22
20015;BME280;61787;42.022;23.078;2024-01-10T03:39:07;97923.25;;;-3.47;61.08
20015;BME280;61787;42.022;23.078;2024-01-10T03:40:09;97916.28;;;-3.42;60.96
20015;BME280;61787;42.022;23.078;2024-01-10T03:41:14;97918.75;;;-3.46;60.76
20015;BME280;61787;42.022;23.078;2024-01-10T03:42:16;97916.34;;;-3.48;61.34
20015;BME280;61787;42.022;23.078;2024-01-10T03:43:18;97919.28;;;-3.49;61.19
20015;BME280;61787;42.022;23.078;2024-01-10T03:44:19;97923.66;;;-3.58;61.58
20015;BME280;61787;42.022;23.078;2024-01-10T03:45:21;97915.66;;;-3.58;61.84
20015;BME280;61787;42.022;23.078;2024-01-10T03:46:24;97917.84;;;-3.60;61.90
20015;BME280;61787;42.022;23.078;2024-01-10T03:47:26;97923.16;;;-3.60;61.74
20015;BME280;61787;42.022;23.078;2024-01-10T03:48:27;97925.53;;;-3.59;61.26
20015;BME280;61787;42.022;23.078;2024-01-10T03:49:29;97919.84;;;-3.52;61.79
20015;BME280;61787;42.022;23.078;2024-01-10T03:50:31;97928.34;;;-3.50;61.41
20015;BME280;61787;42.022;23.078;2024-01-10T03:51:32;97925.03;;;-3.37;60.90
20015;BME280;61787;42.022;23.078;2024-01-10T03:52:34;97922.38;;;-3.37;60.98
20015;BME280;61787;42.022;23.078;2024-01-10T03:53:36;97923.38;;;-3.33;60.96
20015;BME280;61787;42.022;23.078;2024-01-10T03:54:37;97921.81;;;-3.34;60.83
20015;BME280;61787;42.022;23.078;2024-01-10T03:55:40;97924.16;;;-3.32;60.35
20015;BME280;61787;42.022;23.078;2024-01-10T03:56:42;97923.59;;;-3.29;60.18
20015;BME280;61787;42.022;23.078;2024-01-10T03:57:43;97921.84;;;-3.39;60.46
20015;BME280;61787;42.022;23.078;2024-01-10T03:58:45;97920.81;;;-3.43;60.01
20015;BME280;61787;42.022;23.078;2024-01-10T03:59:50;97926.31;;;-3.34;60.58
20015;BME280;61787;42.022;23.078;2024-01-10T04:00:51;97927.06;;;-3.29;60.04
20015;BME280;61787;42.022;23.078;2024-01-10T04:01:53;97925.53;;;-3.35;60.05
20015;BME280;61787;42.022;23.078;2024-01-10T04:02:55;97923.66;;;-3.34;60.48
20015;BME280;61787;42.022;23.078;2024-01-10T04:03:56;97931.38;;;-3.33;59.68
20015;BME280;61787;42.022;23.078;2024-01-10T04:04:58;97934.59;;;-3.36;59.99
20015;BME280;61787;42.022;23.078;2024-01-10T04:06:00;97928.09;;;-3.49;60.36
20015;BME280;61787;42.022;23.078;2024-01-10T04:07:02;97931.66;;;-3.58;61.10
20015;BME280;61787;42.022;23.078;2024-01-10T04:08:04;97924.69;;;-3.54;60.84
20015;BME280;61787;42.022;23.078;2024-01-10T04:09:06;97928.31;;;-3.45;60.52
20015;BME280;61787;42.022;23.078;2024-01-10T04:10:11;97933.13;;;-3.47;60.38
20015;BME280;61787;42.022;23.078;2024-01-10T04:11:15;97937.34;;;-3.41;60.38
20015;BME280;61787;42.022;23.078;2024-01-10T04:12:17;97938.91;;;-3.40;60.38
20015;BME280;61787;42.022;23.078;2024-01-10T04:13:18;97937.81;;;-3.34;60.35
20015;BME280;61787;42.022;23.078;2024-01-10T04:14:20;97936.16;;;-3.30;59.92
20015;BME280;61787;42.022;23.078;2024-01-10T04:15:21;97944.47;;;-3.36;60.26
20015;BME280;61787;42.022;23.078;2024-01-10T04:16:24;97943.69;;;-3.37;60.40
20015;BME280;61787;42.022;23.078;2024-01-10T04:17:26;97943.56;;;-3.51;60.26
20015;BME280;61787;42.022;23.078;2024-01-10T04:18:28;97941.47;;;-3.54;60.78
20015;BME280;61787;42.022;23.078;2024-01-10T04:19:30;97950.28;;;-3.53;61.07
20015;BME280;61787;42.022;23.078;2024-01-10T04:20:32;97945.22;;;-3.55;60.86
20015;BME280;61787;42.022;23.078;2024-01-10T04:21:34;97948.13;;;-3.51;60.68
20015;BME280;61787;42.022;23.078;2024-01-10T04:22:36;97944.94;;;-3.53;60.54
20015;BME280;61787;42.022;23.078;2024-01-10T04:23:37;97942.28;;;-3.53;60.77
20015;BME280;61787;42.022;23.078;2024-01-10T04:24:39;97944.34;;;-3.50;60.74
20015;BME280;61787;42.022;23.078;2024-01-10T04:25:41;97942.84;;;-3.56;60.94
20015;BME280;61787;42.022;23.078;2024-01-10T04:26:42;97950.28;;;-3.53;61.02
20015;BME280;61787;42.022;23.078;2024-01-10T04:27:44;97955.38;;;-3.57;61.14
20015;BME280;61787;42.022;23.078;2024-01-10T04:28:46;97956.75;;;-3.65;61.16
20015;BME280;61787;42.022;23.078;2024-01-10T04:29:47;97953.59;;;-3.67;61.51
20015;BME280;61787;42.022;23.078;2024-01-10T04:30:49;97952.06;;;-3.73;61.26
20015;BME280;61787;42.022;23.078;2024-01-10T04:31:51;97956.22;;;-3.61;61.33
20015;BME280;61787;42.022;23.078;2024-01-10T04:32:52;97960.00;;;-3.68;61.44
20015;BME280;61787;42.022;23.078;2024-01-10T04:33:54;97960.28;;;-3.69;61.82
20015;BME280;61787;42.022;23.078;2024-01-10T04:34:56;97964.22;;;-3.61;61.11
20015;BME280;61787;42.022;23.078;2024-01-10T04:35:58;97958.88;;;-3.61;61.69
20015;BME280;61787;42.022;23.078;2024-01-10T04:37:00;97960.13;;;-3.54;60.78
20015;BME280;61787;42.022;23.078;2024-01-10T04:38:01;97963.88;;;-3.55;61.06
20015;BME280;61787;42.022;23.078;2024-01-10T04:39:04;97967.34;;;-3.54;60.81
20015;BME280;61787;42.022;23.078;2024-01-10T04:40:06;97965.16;;;-3.52;61.03
20015;BME280;61787;42.022;23.078;2024-01-10T04:41:09;97964.66;;;-3.54;61.49
20015;BME280;61787;42.022;23.078;2024-01-10T04:42:11;97960.13;;;-3.54;61.26
20015;BME280;61787;42.022;23.078;2024-01-10T04:43:14;97965.91;;;-3.47;60.99
20015;BME280;61787;42.022;23.078;2024-01-10T04:44:15;97968.53;;;-3.41;61.07
20015;BME280;61787;42.022;23.078;2024-01-10T04:45:17;97963.38;;;-3.33;60.56
20015;BME280;61787;42.022;23.078;2024-01-10T04:46:19;97964.97;;;-3.32;60.26
20015;BME280;61787;42.022;23.078;2024-01-10T04:47:20;97965.47;;;-3.30;60.41
20015;BME280;61787;42.022;23.078;2024-01-10T04:48:22;97967.06;;;-3.29;60.12
20015;BME280;61787;42.022;23.078;2024-01-10T04:49:24;97974.53;;;-3.31;60.20
20015;BME280;61787;42.022;23.078;2024-01-10T04:50:25;97962.47;;;-3.23;60.05
20015;BME280;61787;42.022;23.078;2024-01-10T04:51:27;97973.94;;;-3.22;59.88
20015;BME280;61787;42.022;23.078;2024-01-10T04:52:29;97974.31;;;-3.10;59.82
20015;BME280;61787;42.022;23.078;2024-01-10T04:53:30;97970.34;;;-3.13;59.65
20015;BME280;61787;42.022;23.078;2024-01-10T04:54:32;97979.31;;;-3.03;59.70
20015;BME280;61787;42.022;23.078;2024-01-10T04:55:33;97974.41;;;-2.96;59.82
20015;BME280;61787;42.022;23.078;2024-01-10T04:56:35;97976.69;;;-2.84;59.74
20015;BME280;61787;42.022;23.078;2024-01-10T04:57:40;97977.56;;;-2.70;58.91
20015;BME280;61787;42.022;23.078;2024-01-10T04:58:41;97976.31;;;-2.59;58.75
20015;BME280;61787;42.022;23.078;2024-01-10T04:59:43;97986.59;;;-2.47;58.28
20015;BME280;61787;42.022;23.078;2024-01-10T05:00:45;97986.25;;;-2.40;58.52
20015;BME280;61787;42.022;23.078;2024-01-10T05:01:46;97979.72;;;-2.34;58.14
20015;BME280;61787;42.022;23.078;2024-01-10T05:02:48;97985.78;;;-2.28;58.06
20015;BME280;61787;42.022;23.078;2024-01-10T05:03:53;97982.75;;;-2.22;58.11
20015;BME280;61787;42.022;23.078;2024-01-10T05:04:54;97984.75;;;-2.14;57.88
20015;BME280;61787;42.022;23.078;2024-01-10T05:05:56;97979.84;;;-2.06;57.70
20015;BME280;61787;42.022;23.078;2024-01-10T05:06:58;97975.72;;;-1.99;57.39
20015;BME280;61787;42.022;23.078;2024-01-10T05:08:00;97978.81;;;-1.92;57.67
20015;BME280;61787;42.022;23.078;2024-01-10T05:09:02;97980.00;;;-1.84;57.59
20015;BME280;61787;42.022;23.078;2024-01-10T05:10:06;97983.88;;;-1.76;57.05
20015;BME280;61787;42.022;23.078;2024-01-10T05:11:08;97985.97;;;-1.73;57.18
20015;BME280;61787;42.022;23.078;2024-01-10T05:12:10;97978.66;;;-1.67;56.84
20015;BME280;61787;42.022;23.078;2024-01-10T05:13:12;97979.69;;;-1.63;56.50
20015;BME280;61787;42.022;23.078;2024-01-10T05:14:14;97985.72;;;-1.58;56.56
20015;BME280;61787;42.022;23.078;2024-01-10T05:15:15;97981.94;;;-1.57;56.37
20015;BME280;61787;42.022;23.078;2024-01-10T05:16:17;97983.06;;;-1.58;56.61
20015;BME280;61787;42.022;23.078;2024-01-10T05:17:19;97986.44;;;-1.52;56.35
20015;BME280;61787;42.022;23.078;2024-01-10T05:18:21;97986.94;;;-1.50;56.35
20015;BME280;61787;42.022;23.078;2024-01-10T05:19:23;97988.41;;;-1.44;57.02
20015;BME280;61787;42.022;23.078;2024-01-10T05:20:24;97986.34;;;-1.33;56.04
20015;BME280;61787;42.022;23.078;2024-01-10T05:21:26;97995.97;;;-1.32;55.86
20015;BME280;61787;42.022;23.078;2024-01-10T05:22:29;97988.94;;;-1.28;55.66
20015;BME280;61787;42.022;23.078;2024-01-10T05:23:30;97992.41;;;-1.27;55.79